sensor_id;sensor_type;location;lat;lon;timestamp;temperature;humidity
5556;DHT22;2801;50.972;7.856;2024-01-30T00:01:09;1.70;99.90
5556;DHT22;2801;50.972;7.856;2024-01-30T00:03:37;1.80;99.90
5556;DHT22;2801;50.972;7.856;2024-01-30T00:06:04;1.80;99.90
5556;DHT22;2801;50.972;7.856;2024-01-30T00:08:31;1.80;99.90
5556;DHT22;2801;50.972;7.856;2024-01-30T00:10:58;1.80;99.90
5556;DHT22;2801;50.972;7.856;2024-01-30T00:13:25;1.80;99.90
5556;DHT22;2801;50.972;7.856;2024-01-30T00:15:52;1.90;99.90
5556;DHT22;2801;50.972;7.856;2024-01-30T00:18:20;1.70;99.90
5556;DHT22;2801;50.972;7.856;2024-01-30T00:20:48;1.60;99.90
5556;DHT22;2801;50.972;7.856;2024-01-30T00:23:15;1.70;99.90
5556;DHT22;2801;50.972;7.856;2024-01-30T00:25:42;1.60;99.90
5556;DHT22;2801;50.972;7.856;2024-01-30T00:28:09;1.60;99.90
5556;DHT22;2801;50.972;7.856;2024-01-30T00:30:36;1.50;99.90
5556;DHT22;2801;50.972;7.856;2024-01-30T00:33:03;1.50;99.90
5556;DHT22;2801;50.972;7.856;2024-01-30T00:35:31;1.50;99.90
5556;DHT22;2801;50.972;7.856;2024-01-30T00:37:58;1.50;99.90
5556;DHT22;2801;50.972;7.856;2024-01-30T00:40:25;1.50;99.90
5556;DHT22;2801;50.972;7.856;2024-01-30T00:42:53;1.50;99.90
5556;DHT22;2801;50.972;7.856;2024-01-30T00:45:20;1.50;99.90
5556;DHT22;2801;50.972;7.856;2024-01-30T00:47:47;1.50;99.90
5556;DHT22;2801;50.972;7.856;2024-01-30T00:50:14;1.50;99.90
5556;DHT22;2801;50.972;7.856;2024-01-30T00:52:41;1.40;99.90
5556;DHT22;2801;50.972;7.856;2024-01-30T00:55:11;1.40;99.90
5556;DHT22;2801;50.972;7.856;2024-01-30T00:57:38;1.30;99.90
5556;DHT22;2801;50.972;7.856;2024-01-30T01:00:08;1.30;99.90
5556;DHT22;2801;50.972;7.856;2024-01-30T01:02:36;1.20;99.90
5556;DHT22;2801;50.972;7.856;2024-01-30T01:05:03;1.20;99.90
5556;DHT22;2801;50.972;7.856;2024-01-30T01:07:31;1.20;99.90
5556;DHT22;2801;50.972;7.856;2024-01-30T01:09:58;1.20;99.90
5556;DHT22;2801;50.972;7.856;2024-01-30T01:12:25;1.30;99.90
5556;DHT22;2801;50.972;7.856;2024-01-30T01:14:52;1.20;99.90
5556;DHT22;2801;50.972;7.856;2024-01-30T01:17:19;1.20;99.90
5556;DHT22;2801;50.972;7.856;2024-01-30T01:19:47;1.30;99.90
5556;DHT22;2801;50.972;7.856;2024-01-30T01:22:14;1.30;99.90
5556;DHT22;2801;50.972;7.856;2024-01-30T01:24:41;1.30;99.90
5556;DHT22;2801;50.972;7.856;2024-01-30T01:27:08;1.20;99.90
5556;DHT22;2801;50.972;7.856;2024-01-30T01:29:35;1.20;99.90
5556;DHT22;2801;50.972;7.856;2024-01-30T01:32:02;1.10;99.90
5556;DHT22;2801;50.972;7.856;2024-01-30T01:34:29;1.10;99.90
5556;DHT22;2801;50.972;7.856;2024-01-30T01:36:56;1.20;99.90
5556;DHT22;2801;50.972;7.856;2024-01-30T01:39:24;1.00;99.90
5556;DHT22;2801;50.972;7.856;2024-01-30T01:41:51;1.00;99.90
5556;DHT22;2801;50.972;7.856;2024-01-30T01:44:19;0.90;99.90
5556;DHT22;2801;50.972;7.856;2024-01-30T01:46:46;0.90;99.90
5556;DHT22;2801;50.972;7.856;2024-01-30T01:49:14;0.90;99.90
5556;DHT22;2801;50.972;7.856;2024-01-30T01:51:42;0.90;99.90
5556;DHT22;2801;50.972;7.856;2024-01-30T01:54:12;1.00;99.90
5556;DHT22;2801;50.972;7.856;2024-01-30T01:56:41;1.00;99.90
5556;DHT22;2801;50.972;7.856;2024-01-30T01:59:09;1.00;99.90
5556;DHT22;2801;50.972;7.856;2024-01-30T02:01:39;1.00;99.90
5556;DHT22;2801;50.972;7.856;2024-01-30T02:04:08;1.00;99.90
5556;DHT22;2801;50.972;7.856;2024-01-30T02:06:35;0.90;99.90
5556;DHT22;2801;50.972;7.856;2024-01-30T02:09:02;0.90;99.90
5556;DHT22;2801;50.972;7.856;2024-01-30T02:11:31;0.90;99.90
5556;DHT22;2801;50.972;7.856;2024-01-30T02:14:03;0.90;99.90
5556;DHT22;2801;50.972;7.856;2024-01-30T02:16:31;0.80;99.90
5556;DHT22;2801;50.972;7.856;2024-01-30T02:18:59;0.80;99.90
5556;DHT22;2801;50.972;7.856;2024-01-30T02:21:26;0.80;99.90
5556;DHT22;2801;50.972;7.856;2024-01-30T02:23:54;0.80;99.90
5556;DHT22;2801;50.972;7.856;2024-01-30T02:26:22;0.80;99.90
5556;DHT22;2801;50.972;7.856;2024-01-30T02:28:49;0.80;99.90
5556;DHT22;2801;50.972;7.856;2024-01-30T02:31:17;0.80;99.90
5556;DHT22;2801;50.972;7.856;2024-01-30T02:33:44;0.80;99.90
5556;DHT22;2801;50.972;7.856;2024-01-30T02:36:11;0.80;99.90
5556;DHT22;2801;50.972;7.856;2024-01-30T02:38:38;0.80;99.90
5556;DHT22;2801;50.972;7.856;2024-01-30T02:41:05;0.80;99.90
5556;DHT22;2801;50.972;7.856;2024-01-30T02:43:32;0.80;99.90
5556;DHT22;2801;50.972;7.856;2024-01-30T02:45:59;0.80;99.90
5556;DHT22;2801;50.972;7.856;2024-01-30T02:48:27;0.70;99.90
5556;DHT22;2801;50.972;7.856;2024-01-30T02:50:55;0.80;99.90
5556;DHT22;2801;50.972;7.856;2024-01-30T02:53:21;0.80;99.90
5556;DHT22;2801;50.972;7.856;2024-01-30T02:55:48;0.80;99.90
5556;DHT22;2801;50.972;7.856;2024-01-30T02:58:17;0.80;99.90
5556;DHT22;2801;50.972;7.856;2024-01-30T03:00:44;0.70;99.90
5556;DHT22;2801;50.972;7.856;2024-01-30T03:03:11;0.70;99.90
5556;DHT22;2801;50.972;7.856;2024-01-30T03:05:38;0.70;99.90
5556;DHT22;2801;50.972;7.856;2024-01-30T03:08:05;0.70;99.90
5556;DHT22;2801;50.972;7.856;2024-01-30T03:10:32;0.70;99.90
5556;DHT22;2801;50.972;7.856;2024-01-30T03:13:00;0.70;99.90
5556;DHT22;2801;50.972;7.856;2024-01-30T03:15:27;0.70;99.90
5556;DHT22;2801;50.972;7.856;2024-01-30T03:17:54;0.70;99.90
5556;DHT22;2801;50.972;7.856;2024-01-30T03:20:21;0.70;99.90
5556;DHT22;2801;50.972;7.856;2024-01-30T03:22:48;0.70;99.90
5556;DHT22;2801;50.972;7.856;2024-01-30T03:25:15;0.70;99.90
5556;DHT22;2801;50.972;7.856;2024-01-30T03:27:42;0.70;99.90
5556;DHT22;2801;50.972;7.856;2024-01-30T03:30:09;0.70;99.90
5556;DHT22;2801;50.972;7.856;2024-01-30T03:32:36;0.70;99.90
5556;DHT22;2801;50.972;7.856;2024-01-30T03:35:04;0.70;99.90
5556;DHT22;2801;50.972;7.856;2024-01-30T03:37:31;0.70;99.90
5556;DHT22;2801;50.972;7.856;2024-01-30T03:39:58;0.70;99.90
5556;DHT22;2801;50.972;7.856;2024-01-30T03:42:26;0.60;99.90
5556;DHT22;2801;50.972;7.856;2024-01-30T03:44:53;0.70;99.90
5556;DHT22;2801;50.972;7.856;2024-01-30T03:47:21;0.60;99.90
5556;DHT22;2801;50.972;7.856;2024-01-30T03:49:48;0.60;99.90
5556;DHT22;2801;50.972;7.856;2024-01-30T03:52:15;0.60;99.90
5556;DHT22;2801;50.972;7.856;2024-01-30T03:54:43;0.60;99.90
5556;DHT22;2801;50.972;7.856;2024-01-30T03:57:11;0.60;99.90
5556;DHT22;2801;50.972;7.856;2024-01-30T03:59:42;0.60;99.90
5556;DHT22;2801;50.972;7.856;2024-01-30T04:02:10;0.60;99.90
5556;DHT22;2801;50.972;7.856;2024-01-30T04:04:38;0.60;99.90
5556;DHT22;2801;50.972;7.856;2024-01-30T04:07:05;0.60;99.90
5556;DHT22;2801;50.972;7.856;2024-01-30T04:09:33;0.60;99.90
5556;DHT22;2801;50.972;7.856;2024-01-30T04:12:00;0.60;99.90
5556;DHT22;2801;50.972;7.856;2024-01-30T04:14:29;0.60;99.90
5556;DHT22;2801;50.972;7.856;2024-01-30T04:16:56;0.70;99.90
5556;DHT22;2801;50.972;7.856;2024-01-30T04:19:23;0.60;99.90
5556;DHT22;2801;50.972;7.856;2024-01-30T04:21:50;0.50;99.90
5556;DHT22;2801;50.972;7.856;2024-01-30T04:24:17;0.50;99.90
5556;DHT22;2801;50.972;7.856;2024-01-30T04:26:45;0.50;99.90
5556;DHT22;2801;50.972;7.856;2024-01-30T04:29:12;0.50;99.90
5556;DHT22;2801;50.972;7.856;2024-01-30T04:31:39;0.40;99.90
5556;DHT22;2801;50.972;7.856;2024-01-30T04:34:06;0.40;99.90
5556;DHT22;2801;50.972;7.856;2024-01-30T04:36:33;0.40;99.90
5556;DHT22;2801;50.972;7.856;2024-01-30T04:39:00;0.40;99.90
5556;DHT22;2801;50.972;7.856;2024-01-30T04:41:27;0.40;99.90
5556;DHT22;2801;50.972;7.856;2024-01-30T04:43:58;0.40;99.90
5556;DHT22;2801;50.972;7.856;2024-01-30T04:46:25;0.40;99.90
5556;DHT22;2801;50.972;7.856;2024-01-30T04:48:52;0.40;99.90
5556;DHT22;2801;50.972;7.856;2024-01-30T04:51:19;0.40;99.90
5556;DHT22;2801;50.972;7.856;2024-01-30T04:53:46;0.40;99.90
5556;DHT22;2801;50.972;7.856;2024-01-30T04:56:13;0.30;99.90
5556;DHT22;2801;50.972;7.856;2024-01-30T04:58:40;0.30;99.90
5556;DHT22;2801;50.972;7.856;2024-01-30T05:01:07;0.30;99.90
5556;DHT22;2801;50.972;7.856;2024-01-30T05:03:34;0.30;99.90
5556;DHT22;2801;50.972;7.856;2024-01-30T05:06:02;0.30;99.90
5556;DHT22;2801;50.972;7.856;2024-01-30T05:08:29;0.20;99.90
5556;DHT22;2801;50.972;7.856;2024-01-30T05:10:56;0.40;99.90
5556;DHT22;2801;50.972;7.856;2024-01-30T05:13:23;0.20;99.90
5556;DHT22;2801;50.972;7.856;2024-01-30T05:15:50;0.20;99.90
5556;DHT22;2801;50.972;7.856;2024-01-30T05:18:17;0.20;99.90
5556;DHT22;2801;50.972;7.856;2024-01-30T05:20:44;0.20;99.90
5556;DHT22;2801;50.972;7.856;2024-01-30T05:23:11;0.20;99.90
5556;DHT22;2801;50.972;7.856;2024-01-30T05:25:38;0.30;99.90
5556;DHT22;2801;50.972;7.856;2024-01-30T05:28:05;0.30;99.90
5556;DHT22;2801;50.972;7.856;2024-01-30T05:30:32;0.20;99.90
5556;DHT22;2801;50.972;7.856;2024-01-30T05:32:59;0.20;99.90
5556;DHT22;2801;50.972;7.856;2024-01-30T05:35:26;0.20;99.90
5556;DHT22;2801;50.972;7.856;2024-01-30T05:37:54;0.20;99.90
5556;DHT22;2801;50.972;7.856;2024-01-30T05:40:21;0.20;99.90
5556;DHT22;2801;50.972;7.856;2024-01-30T05:42:49;0.10;99.90
5556;DHT22;2801;50.972;7.856;2024-01-30T05:45:16;0.20;99.90
5556;DHT22;2801;50.972;7.856;2024-01-30T05:47:42;0.20;99.90
5556;DHT22;2801;50.972;7.856;2024-01-30T05:50:09;0.20;99.90
5556;DHT22;2801;50.972;7.856;2024-01-30T05:52:37;0.10;99.90
5556;DHT22;2801;50.972;7.856;2024-01-30T05:55:04;0.20;99.90
5556;DHT22;2801;50.972;7.856;2024-01-30T05:57:32;0.10;99.90
5556;DHT22;2801;50.972;7.856;2024-01-30T05:59:59;0.10;99.90
5556;DHT22;2801;50.972;7.856;2024-01-30T06:02:26;0.10;99.90
5556;DHT22;2801;50.972;7.856;2024-01-30T06:04:53;0.10;99.90
5556;DHT22;2801;50.972;7.856;2024-01-30T06:07:20;0.10;99.90
5556;DHT22;2801;50.972;7.856;2024-01-30T06:09:48;0.10;99.90
5556;DHT22;2801;50.972;7.856;2024-01-30T06:12:15;0.10;99.90
5556;DHT22;2801;50.972;7.856;2024-01-30T06:14:42;0.10;99.90
5556;DHT22;2801;50.972;7.856;2024-01-30T06:17:13;0.00;99.90
5556;DHT22;2801;50.972;7.856;2024-01-30T06:19:40;0.10;99.90
5556;DHT22;2801;50.972;7.856;2024-01-30T06:22:08;0.10;99.90
5556;DHT22;2801;50.972;7.856;2024-01-30T06:24:35;0.10;99.90
5556;DHT22;2801;50.972;7.856;2024-01-30T06:27:02;0.10;99.90
5556;DHT22;2801;50.972;7.856;2024-01-30T06:29:29;0.10;99.90
5556;DHT22;2801;50.972;7.856;2024-01-30T06:31:56;0.10;99.90
5556;DHT22;2801;50.972;7.856;2024-01-30T06:34:24;0.10;99.90
5556;DHT22;2801;50.972;7.856;2024-01-30T06:36:53;0.10;99.90
5556;DHT22;2801;50.972;7.856;2024-01-30T06:39:20;0.10;99.90
5556;DHT22;2801;50.972;7.856;2024-01-30T06:41:47;0.10;99.90
5556;DHT22;2801;50.972;7.856;2024-01-30T06:44:14;0.10;99.90
5556;DHT22;2801;50.972;7.856;2024-01-30T06:46:41;0.10;99.90
5556;DHT22;2801;50.972;7.856;2024-01-30T06:49:08;0.00;99.90
5556;DHT22;2801;50.972;7.856;2024-01-30T06:51:35;0.00;99.90
5556;DHT22;2801;50.972;7.856;2024-01-30T06:54:02;0.00;99.90
5556;DHT22;2801;50.972;7.856;2024-01-30T06:56:30;0.00;99.90
5556;DHT22;2801;50.972;7.856;2024-01-30T06:58:57;-0.10;99.90
5556;DHT22;2801;50.972;7.856;2024-01-30T07:01:28;0.00;99.90
5556;DHT22;2801;50.972;7.856;2024-01-30T07:03:56;0.00;99.90
5556;DHT22;2801;50.972;7.856;2024-01-30T07:06:24;0.00;99.90
5556;DHT22;2801;50.972;7.856;2024-01-30T07:08:51;0.00;99.90
5556;DHT22;2801;50.972;7.856;2024-01-30T07:11:22;0.10;99.90
5556;DHT22;2801;50.972;7.856;2024-01-30T07:13:51;0.10;99.90
5556;DHT22;2801;50.972;7.856;2024-01-30T07:16:18;0.20;99.90
5556;DHT22;2801;50.972;7.856;2024-01-30T07:18:45;0.20;99.90
5556;DHT22;2801;50.972;7.856;2024-01-30T07:21:12;0.20;99.90
5556;DHT22;2801;50.972;7.856;2024-01-30T07:23:39;0.20;99.90
5556;DHT22;2801;50.972;7.856;2024-01-30T07:26:08;0.20;99.90
5556;DHT22;2801;50.972;7.856;2024-01-30T07:28:36;0.30;99.90
5556;DHT22;2801;50.972;7.856;2024-01-30T07:31:03;0.30;99.90
5556;DHT22;2801;50.972;7.856;2024-01-30T07:33:30;0.30;99.90
5556;DHT22;2801;50.972;7.856;2024-01-30T07:35:58;0.30;99.90
5556;DHT22;2801;50.972;7.856;2024-01-30T07:38:24;0.40;99.90
5556;DHT22;2801;50.972;7.856;2024-01-30T07:40:51;0.40;99.90
5556;DHT22;2801;50.972;7.856;2024-01-30T07:43:18;0.50;99.90
5556;DHT22;2801;50.972;7.856;2024-01-30T07:45:46;0.70;99.90
5556;DHT22;2801;50.972;7.856;2024-01-30T07:48:14;0.70;99.90
5556;DHT22;2801;50.972;7.856;2024-01-30T07:50:41;0.80;99.90
5556;DHT22;2801;50.972;7.856;2024-01-30T07:53:08;0.80;99.90
5556;DHT22;2801;50.972;7.856;2024-01-30T07:55:35;0.90;99.90
5556;DHT22;2801;50.972;7.856;2024-01-30T07:58:03;1.00;99.90
5556;DHT22;2801;50.972;7.856;2024-01-30T08:00:31;1.00;99.90
5556;DHT22;2801;50.972;7.856;2024-01-30T08:02:58;1.10;99.90
5556;DHT22;2801;50.972;7.856;2024-01-30T08:05:25;1.20;99.90
5556;DHT22;2801;50.972;7.856;2024-01-30T08:07:53;1.30;99.90
5556;DHT22;2801;50.972;7.856;2024-01-30T08:10:20;1.40;99.90
5556;DHT22;2801;50.972;7.856;2024-01-30T08:12:48;1.50;99.90
5556;DHT22;2801;50.972;7.856;2024-01-30T08:15:15;1.50;99.90
5556;DHT22;2801;50.972;7.856;2024-01-30T08:17:42;1.70;99.90
5556;DHT22;2801;50.972;7.856;2024-01-30T08:20:09;1.90;99.90
5556;DHT22;2801;50.972;7.856;2024-01-30T08:22:39;2.00;99.90
5556;DHT22;2801;50.972;7.856;2024-01-30T08:25:07;2.20;99.90
5556;DHT22;2801;50.972;7.856;2024-01-30T08:27:36;2.30;99.90
5556;DHT22;2801;50.972;7.856;2024-01-30T08:30:08;2.40;99.90
5556;DHT22;2801;50.972;7.856;2024-01-30T08:32:36;2.50;99.90
5556;DHT22;2801;50.972;7.856;2024-01-30T08:35:03;2.50;99.90
5556;DHT22;2801;50.972;7.856;2024-01-30T08:37:31;2.70;99.90
5556;DHT22;2801;50.972;7.856;2024-01-30T08:39:58;2.90;99.90
5556;DHT22;2801;50.972;7.856;2024-01-30T08:42:26;3.10;99.90
5556;DHT22;2801;50.972;7.856;2024-01-30T08:44:53;3.30;99.90
5556;DHT22;2801;50.972;7.856;2024-01-30T08:47:21;3.50;99.90
5556;DHT22;2801;50.972;7.856;2024-01-30T08:49:48;3.60;99.90
5556;DHT22;2801;50.972;7.856;2024-01-30T08:52:15;3.60;99.90
5556;DHT22;2801;50.972;7.856;2024-01-30T08:54:42;3.70;99.90
5556;DHT22;2801;50.972;7.856;2024-01-30T08:57:09;3.80;99.90
5556;DHT22;2801;50.972;7.856;2024-01-30T08:59:36;3.90;99.90
5556;DHT22;2801;50.972;7.856;2024-01-30T09:02:03;4.00;99.90
5556;DHT22;2801;50.972;7.856;2024-01-30T09:04:38;4.20;99.90
5556;DHT22;2801;50.972;7.856;2024-01-30T09:07:06;4.40;99.90
5556;DHT22;2801;50.972;7.856;2024-01-30T09:09:40;4.30;99.90
5556;DHT22;2801;50.972;7.856;2024-01-30T09:12:08;4.30;99.90
5556;DHT22;2801;50.972;7.856;2024-01-30T09:14:39;4.30;99.90
5556;DHT22;2801;50.972;7.856;2024-01-30T09:17:07;4.50;99.90
5556;DHT22;2801;50.972;7.856;2024-01-30T09:19:34;4.60;99.90
5556;DHT22;2801;50.972;7.856;2024-01-30T09:22:02;4.60;99.90
5556;DHT22;2801;50.972;7.856;2024-01-30T09:24:30;4.60;99.90
5556;DHT22;2801;50.972;7.856;2024-01-30T09:26:57;4.70;99.90
5556;DHT22;2801;50.972;7.856;2024-01-30T09:29:25;4.80;99.90
5556;DHT22;2801;50.972;7.856;2024-01-30T09:31:52;4.80;99.90
5556;DHT22;2801;50.972;7.856;2024-01-30T09:34:19;4.90;99.90
5556;DHT22;2801;50.972;7.856;2024-01-30T09:36:46;4.90;99.90
5556;DHT22;2801;50.972;7.856;2024-01-30T09:39:13;5.00;99.90
5556;DHT22;2801;50.972;7.856;2024-01-30T09:41:49;5.10;99.90
5556;DHT22;2801;50.972;7.856;2024-01-30T09:44:29;5.20;99.90
5556;DHT22;2801;50.972;7.856;2024-01-30T09:46:57;5.20;99.90
5556;DHT22;2801;50.972;7.856;2024-01-30T09:49:32;5.40;99.90
5556;DHT22;2801;50.972;7.856;2024-01-30T09:52:01;5.50;99.90
5556;DHT22;2801;50.972;7.856;2024-01-30T09:54:30;5.60;99.90
5556;DHT22;2801;50.972;7.856;2024-01-30T09:57:02;5.70;99.90
5556;DHT22;2801;50.972;7.856;2024-01-30T09:59:30;5.80;99.90
5556;DHT22;2801;50.972;7.856;2024-01-30T10:01:58;5.90;99.90
5556;DHT22;2801;50.972;7.856;2024-01-30T10:04:25;6.00;99.90
5556;DHT22;2801;50.972;7.856;2024-01-30T10:06:52;6.20;99.90
5556;DHT22;2801;50.972;7.856;2024-01-30T10:09:19;6.40;99.90
5556;DHT22;2801;50.972;7.856;2024-01-30T10:11:48;6.50;99.90
5556;DHT22;2801;50.972;7.856;2024-01-30T10:14:15;6.60;99.90
5556;DHT22;2801;50.972;7.856;2024-01-30T10:16:43;6.60;99.90
5556;DHT22;2801;50.972;7.856;2024-01-30T10:19:13;6.70;99.90
5556;DHT22;2801;50.972;7.856;2024-01-30T10:21:40;6.80;99.90
5556;DHT22;2801;50.972;7.856;2024-01-30T10:24:07;6.90;99.90
5556;DHT22;2801;50.972;7.856;2024-01-30T10:26:34;7.00;99.90
5556;DHT22;2801;50.972;7.856;2024-01-30T10:29:05;7.10;99.90
5556;DHT22;2801;50.972;7.856;2024-01-30T10:31:32;7.10;99.90
5556;DHT22;2801;50.972;7.856;2024-01-30T10:33:59;7.20;99.90
5556;DHT22;2801;50.972;7.856;2024-01-30T10:36:43;7.40;99.90
5556;DHT22;2801;50.972;7.856;2024-01-30T10:39:16;7.40;99.90
5556;DHT22;2801;50.972;7.856;2024-01-30T10:41:44;7.60;99.90
5556;DHT22;2801;50.972;7.856;2024-01-30T10:44:19;7.70;99.90
5556;DHT22;2801;50.972;7.856;2024-01-30T10:46:56;7.80;99.90
5556;DHT22;2801;50.972;7.856;2024-01-30T10:49:29;7.90;99.90
5556;DHT22;2801;50.972;7.856;2024-01-30T10:51:58;8.00;99.90
5556;DHT22;2801;50.972;7.856;2024-01-30T10:54:27;8.30;99.90
5556;DHT22;2801;50.972;7.856;2024-01-30T10:56:57;8.30;99.90
5556;DHT22;2801;50.972;7.856;2024-01-30T10:59:28;8.50;99.90
5556;DHT22;2801;50.972;7.856;2024-01-30T11:01:58;8.60;99.90
5556;DHT22;2801;50.972;7.856;2024-01-30T11:04:27;8.70;99.90
5556;DHT22;2801;50.972;7.856;2024-01-30T11:06:54;8.90;99.90
5556;DHT22;2801;50.972;7.856;2024-01-30T11:09:21;8.90;99.90
5556;DHT22;2801;50.972;7.856;2024-01-30T11:11:56;9.00;99.90
5556;DHT22;2801;50.972;7.856;2024-01-30T11:14:29;9.30;99.90
5556;DHT22;2801;50.972;7.856;2024-01-30T11:17:00;9.20;99.90
5556;DHT22;2801;50.972;7.856;2024-01-30T11:19:30;9.30;99.90
5556;DHT22;2801;50.972;7.856;2024-01-30T11:21:58;9.30;99.90
5556;DHT22;2801;50.972;7.856;2024-01-30T11:24:28;9.40;99.90
5556;DHT22;2801;50.972;7.856;2024-01-30T11:26:59;9.40;99.90
5556;DHT22;2801;50.972;7.856;2024-01-30T11:29:28;9.40;99.90
5556;DHT22;2801;50.972;7.856;2024-01-30T11:31:56;9.50;99.90
5556;DHT22;2801;50.972;7.856;2024-01-30T11:34:26;9.50;99.90
5556;DHT22;2801;50.972;7.856;2024-01-30T11:36:59;9.60;99.90
5556;DHT22;2801;50.972;7.856;2024-01-30T11:39:30;9.70;99.90
5556;DHT22;2801;50.972;7.856;2024-01-30T11:41:59;9.70;99.90
5556;DHT22;2801;50.972;7.856;2024-01-30T11:44:26;9.70;99.90
5556;DHT22;2801;50.972;7.856;2024-01-30T11:46:53;9.80;99.90
5556;DHT22;2801;50.972;7.856;2024-01-30T11:49:20;9.80;99.90
5556;DHT22;2801;50.972;7.856;2024-01-30T11:51:48;10.00;99.90
5556;DHT22;2801;50.972;7.856;2024-01-30T11:54:16;9.80;99.90
5556;DHT22;2801;50.972;7.856;2024-01-30T11:56:43;9.80;99.90
5556;DHT22;2801;50.972;7.856;2024-01-30T11:59:10;9.80;99.90
5556;DHT22;2801;50.972;7.856;2024-01-30T12:01:38;9.80;99.90
5556;DHT22;2801;50.972;7.856;2024-01-30T12:04:05;9.80;99.90
5556;DHT22;2801;50.972;7.856;2024-01-30T12:06:38;9.90;99.90
5556;DHT22;2801;50.972;7.856;2024-01-30T12:09:05;9.90;99.90
5556;DHT22;2801;50.972;7.856;2024-01-30T12:11:48;10.00;99.90
5556;DHT22;2801;50.972;7.856;2024-01-30T12:14:18;10.10;99.90
5556;DHT22;2801;50.972;7.856;2024-01-30T12:16:49;10.40;99.90
5556;DHT22;2801;50.972;7.856;2024-01-30T12:19:22;10.30;99.90
5556;DHT22;2801;50.972;7.856;2024-01-30T12:21:56;10.30;99.90
5556;DHT22;2801;50.972;7.856;2024-01-30T12:24:27;10.40;99.90
5556;DHT22;2801;50.972;7.856;2024-01-30T12:26:58;10.40;99.90
5556;DHT22;2801;50.972;7.856;2024-01-30T12:29:26;10.40;99.90
5556;DHT22;2801;50.972;7.856;2024-01-30T12:32:00;10.40;99.90
5556;DHT22;2801;50.972;7.856;2024-01-30T12:34:27;10.50;99.90
5556;DHT22;2801;50.972;7.856;2024-01-30T12:36:56;10.40;99.90
5556;DHT22;2801;50.972;7.856;2024-01-30T12:39:24;10.40;99.90
5556;DHT22;2801;50.972;7.856;2024-01-30T12:41:52;10.30;99.90
5556;DHT22;2801;50.972;7.856;2024-01-30T12:44:19;10.20;99.90
5556;DHT22;2801;50.972;7.856;2024-01-30T12:46:47;10.10;99.90
5556;DHT22;2801;50.972;7.856;2024-01-30T12:49:14;10.10;99.90
5556;DHT22;2801;50.972;7.856;2024-01-30T12:51:42;10.20;99.90
5556;DHT22;2801;50.972;7.856;2024-01-30T12:54:10;10.20;99.90
5556;DHT22;2801;50.972;7.856;2024-01-30T12:56:39;10.30;99.90
5556;DHT22;2801;50.972;7.856;2024-01-30T12:59:06;10.30;99.90
5556;DHT22;2801;50.972;7.856;2024-01-30T13:01:33;10.40;99.90
5556;DHT22;2801;50.972;7.856;2024-01-30T13:04:00;10.50;99.90
5556;DHT22;2801;50.972;7.856;2024-01-30T13:06:27;10.60;99.90
5556;DHT22;2801;50.972;7.856;2024-01-30T13:08:54;10.50;99.90
5556;DHT22;2801;50.972;7.856;2024-01-30T13:11:21;10.60;99.90
5556;DHT22;2801;50.972;7.856;2024-01-30T13:13:48;10.50;99.90
5556;DHT22;2801;50.972;7.856;2024-01-30T13:16:15;10.60;99.90
5556;DHT22;2801;50.972;7.856;2024-01-30T13:18:43;10.60;99.90
5556;DHT22;2801;50.972;7.856;2024-01-30T13:21:11;10.60;99.90
5556;DHT22;2801;50.972;7.856;2024-01-30T13:23:38;10.70;99.90
5556;DHT22;2801;50.972;7.856;2024-01-30T13:26:05;10.70;99.90
5556;DHT22;2801;50.972;7.856;2024-01-30T13:28:34;10.80;99.90
5556;DHT22;2801;50.972;7.856;2024-01-30T13:31:01;10.80;99.90
5556;DHT22;2801;50.972;7.856;2024-01-30T13:33:28;10.80;99.90
5556;DHT22;2801;50.972;7.856;2024-01-30T13:35:55;10.90;99.90
5556;DHT22;2801;50.972;7.856;2024-01-30T13:38:22;10.90;99.90
5556;DHT22;2801;50.972;7.856;2024-01-30T13:40:49;10.90;99.90
5556;DHT22;2801;50.972;7.856;2024-01-30T13:43:17;11.00;99.90
5556;DHT22;2801;50.972;7.856;2024-01-30T13:45:44;11.00;99.90
5556;DHT22;2801;50.972;7.856;2024-01-30T13:48:12;11.00;99.90
5556;DHT22;2801;50.972;7.856;2024-01-30T13:50:40;11.10;99.90
5556;DHT22;2801;50.972;7.856;2024-01-30T13:53:07;11.10;99.90
5556;DHT22;2801;50.972;7.856;2024-01-30T13:55:35;11.10;99.90
5556;DHT22;2801;50.972;7.856;2024-01-30T13:58:02;11.10;99.90
5556;DHT22;2801;50.972;7.856;2024-01-30T14:00:29;11.10;99.90
5556;DHT22;2801;50.972;7.856;2024-01-30T14:02:56;11.00;99.90
5556;DHT22;2801;50.972;7.856;2024-01-30T14:05:25;11.00;99.90
5556;DHT22;2801;50.972;7.856;2024-01-30T14:07:56;10.90;99.90
5556;DHT22;2801;50.972;7.856;2024-01-30T14:10:25;10.80;99.90
5556;DHT22;2801;50.972;7.856;2024-01-30T14:12:52;10.80;99.90
5556;DHT22;2801;50.972;7.856;2024-01-30T14:15:19;10.80;99.90
5556;DHT22;2801;50.972;7.856;2024-01-30T14:17:55;10.70;99.90
5556;DHT22;2801;50.972;7.856;2024-01-30T14:20:24;10.70;99.90
5556;DHT22;2801;50.972;7.856;2024-01-30T14:22:51;10.60;99.90
5556;DHT22;2801;50.972;7.856;2024-01-30T14:25:20;10.60;99.90
5556;DHT22;2801;50.972;7.856;2024-01-30T14:27:47;10.60;99.90
5556;DHT22;2801;50.972;7.856;2024-01-30T14:30:14;10.50;99.90
5556;DHT22;2801;50.972;7.856;2024-01-30T14:32:42;10.50;99.90
5556;DHT22;2801;50.972;7.856;2024-01-30T14:35:11;10.50;99.90
5556;DHT22;2801;50.972;7.856;2024-01-30T14:37:38;10.50;99.90
5556;DHT22;2801;50.972;7.856;2024-01-30T14:40:06;10.50;99.90
5556;DHT22;2801;50.972;7.856;2024-01-30T14:42:34;10.50;99.90
5556;DHT22;2801;50.972;7.856;2024-01-30T14:45:03;10.40;99.90
5556;DHT22;2801;50.972;7.856;2024-01-30T14:47:31;10.40;99.90
5556;DHT22;2801;50.972;7.856;2024-01-30T14:49:58;10.30;99.90
5556;DHT22;2801;50.972;7.856;2024-01-30T14:52:25;10.30;99.90
5556;DHT22;2801;50.972;7.856;2024-01-30T14:54:52;10.20;99.90
5556;DHT22;2801;50.972;7.856;2024-01-30T14:57:19;10.10;99.90
5556;DHT22;2801;50.972;7.856;2024-01-30T14:59:46;10.10;99.90
5556;DHT22;2801;50.972;7.856;2024-01-30T15:02:15;10.10;99.90
5556;DHT22;2801;50.972;7.856;2024-01-30T15:04:42;10.00;99.90
5556;DHT22;2801;50.972;7.856;2024-01-30T15:07:09;10.00;99.90
5556;DHT22;2801;50.972;7.856;2024-01-30T15:09:39;9.90;99.90
5556;DHT22;2801;50.972;7.856;2024-01-30T15:12:06;9.90;99.90
5556;DHT22;2801;50.972;7.856;2024-01-30T15:14:33;9.80;99.90
5556;DHT22;2801;50.972;7.856;2024-01-30T15:17:01;9.80;99.90
5556;DHT22;2801;50.972;7.856;2024-01-30T15:19:29;9.70;99.90
5556;DHT22;2801;50.972;7.856;2024-01-30T15:21:56;9.70;99.90
5556;DHT22;2801;50.972;7.856;2024-01-30T15:24:25;9.60;99.90
5556;DHT22;2801;50.972;7.856;2024-01-30T15:26:52;9.60;99.90
5556;DHT22;2801;50.972;7.856;2024-01-30T15:29:19;9.50;99.90
5556;DHT22;2801;50.972;7.856;2024-01-30T15:31:48;9.50;99.90
5556;DHT22;2801;50.972;7.856;2024-01-30T15:34:15;9.40;99.90
5556;DHT22;2801;50.972;7.856;2024-01-30T15:36:42;9.40;99.90
5556;DHT22;2801;50.972;7.856;2024-01-30T15:39:09;9.40;99.90
5556;DHT22;2801;50.972;7.856;2024-01-30T15:41:37;9.50;99.90
5556;DHT22;2801;50.972;7.856;2024-01-30T15:44:05;9.40;99.90
5556;DHT22;2801;50.972;7.856;2024-01-30T15:46:33;9.40;99.90
5556;DHT22;2801;50.972;7.856;2024-01-30T15:49:00;9.40;99.90
5556;DHT22;2801;50.972;7.856;2024-01-30T15:51:31;9.40;99.90
5556;DHT22;2801;50.972;7.856;2024-01-30T15:53:58;9.40;99.90
5556;DHT22;2801;50.972;7.856;2024-01-30T15:56:25;9.40;99.90
5556;DHT22;2801;50.972;7.856;2024-01-30T15:58:52;9.40;99.90
5556;DHT22;2801;50.972;7.856;2024-01-30T16:01:19;9.40;99.90
5556;DHT22;2801;50.972;7.856;2024-01-30T16:03:46;9.40;99.90
5556;DHT22;2801;50.972;7.856;2024-01-30T16:06:14;9.30;99.90
5556;DHT22;2801;50.972;7.856;2024-01-30T16:08:41;9.30;99.90
5556;DHT22;2801;50.972;7.856;2024-01-30T16:11:09;9.20;99.90
5556;DHT22;2801;50.972;7.856;2024-01-30T16:13:36;9.20;99.90
5556;DHT22;2801;50.972;7.856;2024-01-30T16:16:07;9.20;99.90
5556;DHT22;2801;50.972;7.856;2024-01-30T16:18:35;9.20;99.90